Canefield Airport

Partly cloudy and hazy
28oC (82oF)

Partly cloudy and hazy


Winds: East south easterly @ 05kts / 09km/h

Humidity: 60%

Barometric Pressure: 1012 mb

Accumulated Rainfall for November: 267.3 mm

Updated: 18:00 local time (22:00 UTC)

Douglas-Charles Airport

Cloudy with slight haze
27oC (81oF)

Cloudy with slight haze


Winds: East south easterly @ 08kts / 15km/h

Humidity: 81%

Barometric Pressure: 1013 mb

Accumulated Rainfall for November: 585.9 mm

Updated: 18:00 local time (22:00 UTC)

Satellite Imagery

Satellite Imagery
Click image for larger view. (Source: National Hurricane Center).

Aviation Routine Report (METAR)

Douglas-Charles: METAR TDPD 142200Z 12008KT 9999 BKN016 27/23 Q1013=
Canefield: METAR TDCF 142200Z 12005KT 9999 SCT019 28/20 Q1012=